Leeuwarden, Netherlands
Current Conditions -  °F | °C
As of 11:55 PM on Tuesday 21 Oct 2014 (Local Time) from EHLW Reporting Station
Light Rain Light Rain  
Wind Chill: 52°   Ceiling: 4700
Heat Index: 52°   Visibility: 6mi
Dew Point: 45°   Wind: 31mph
Humidity: 76%   Direction: 320°NW
Pressure: 29.59"   Gusts: 43mph
Location:  53.18°N, 5.82°E
Report Text: EHLW 212155Z AUTO 32027G37KT 9999 -RA FEW026 SCT030 BKN047 11/07 Q1002 BLU
Loading
Personal Weather Stations






























Interactive Weather Map
Tropical Storm Tracking
New forecast layout! Learn more

10-Day Weather Forecast

Advertisements
Track Severe Weather on mobile